sensor_id;sensor_type;location;lat;lon;timestamp;pressure;altitude;pressure_sealevel;temperature;humidity
60918;BME280;46792;38.854;-9.384;2023-04-05T00:00:12;99318.81;;;15.76;49.64
60918;BME280;46792;38.854;-9.384;2023-04-05T00:02:14;99311.75;;;15.75;49.59
60918;BME280;46792;38.854;-9.384;2023-04-05T00:04:17;99316.19;;;15.71;50.14
60918;BME280;46792;38.854;-9.384;2023-04-05T00:06:23;99316.00;;;15.68;50.74
60918;BME280;46792;38.854;-9.384;2023-04-05T00:08:28;99313.56;;;15.66;51.02
60918;BME280;46792;38.854;-9.384;2023-04-05T00:10:30;99316.91;;;15.63;51.27
60918;BME280;46792;38.854;-9.384;2023-04-05T00:12:30;99316.81;;;15.54;52.38
60918;BME280;46792;38.854;-9.384;2023-04-05T00:14:31;99314.00;;;15.45;52.97
60918;BME280;46792;38.854;-9.384;2023-04-05T00:16:32;99315.69;;;15.41;52.87
60918;BME280;46792;38.854;-9.384;2023-04-05T00:18:32;99314.19;;;15.35;53.09
60918;BME280;46792;38.854;-9.384;2023-04-05T00:20:33;99313.19;;;15.31;53.03
60918;BME280;46792;38.854;-9.384;2023-04-05T00:22:37;99308.34;;;15.28;53.15
60918;BME280;46792;38.854;-9.384;2023-04-05T00:24:37;99318.41;;;15.27;53.05
60918;BME280;46792;38.854;-9.384;2023-04-05T00:26:41;99318.41;;;15.27;52.76
60918;BME280;46792;38.854;-9.384;2023-04-05T00:28:43;99321.94;;;15.28;52.82
60918;BME280;46792;38.854;-9.384;2023-04-05T00:30:43;99326.78;;;15.31;52.67
60918;BME280;46792;38.854;-9.384;2023-04-05T00:32:46;99329.19;;;15.32;52.39
60918;BME280;46792;38.854;-9.384;2023-04-05T00:34:48;99314.38;;;15.25;52.17
60918;BME280;46792;38.854;-9.384;2023-04-05T00:36:49;99326.47;;;15.32;51.95
60918;BME280;46792;38.854;-9.384;2023-04-05T00:39:00;99329.50;;;15.31;51.77
60918;BME280;46792;38.854;-9.384;2023-04-05T00:41:01;99330.59;;;15.30;51.24
60918;BME280;46792;38.854;-9.384;2023-04-05T00:43:02;99324.66;;;15.28;50.43
60918;BME280;46792;38.854;-9.384;2023-04-05T00:45:02;99330.59;;;15.30;50.41
60918;BME280;46792;38.854;-9.384;2023-04-05T00:47:04;99328.69;;;15.30;49.96
60918;BME280;46792;38.854;-9.384;2023-04-05T00:49:06;99330.59;;;15.30;49.04
60918;BME280;46792;38.854;-9.384;2023-04-05T00:51:09;99326.56;;;15.27;48.21
60918;BME280;46792;38.854;-9.384;2023-04-05T00:53:11;99330.88;;;15.28;47.68
60918;BME280;46792;38.854;-9.384;2023-04-05T00:55:12;99332.69;;;15.33;47.02
60918;BME280;46792;38.854;-9.384;2023-04-05T00:57:34;99329.69;;;15.34;45.47
60918;BME280;46792;38.854;-9.384;2023-04-05T01:00:01;99328.78;;;15.39;44.34
60918;BME280;46792;38.854;-9.384;2023-04-05T01:02:31;99332.22;;;15.45;43.34
60918;BME280;46792;38.854;-9.384;2023-04-05T01:04:33;99331.53;;;15.53;41.89
60918;BME280;46792;38.854;-9.384;2023-04-05T01:09:40;99330.91;;;15.70;38.76
60918;BME280;46792;38.854;-9.384;2023-04-05T01:11:46;99334.31;;;15.76;38.04
60918;BME280;46792;38.854;-9.384;2023-04-05T01:13:48;99332.81;;;15.84;37.38
60918;BME280;46792;38.854;-9.384;2023-04-05T01:15:49;99326.97;;;15.90;36.45
60918;BME280;46792;38.854;-9.384;2023-04-05T01:17:49;99329.09;;;15.93;36.56
60918;BME280;46792;38.854;-9.384;2023-04-05T01:19:57;99328.31;;;15.93;35.89
60918;BME280;46792;38.854;-9.384;2023-04-05T01:30:36;99337.94;;;15.99;34.05
60918;BME280;46792;38.854;-9.384;2023-04-05T01:33:01;99338.97;;;16.03;33.76
60918;BME280;46792;38.854;-9.384;2023-04-05T01:35:17;99330.09;;;16.11;32.33
60918;BME280;46792;38.854;-9.384;2023-04-05T01:37:39;99323.50;;;16.12;31.44
60918;BME280;46792;38.854;-9.384;2023-04-05T01:40:00;99326.00;;;16.23;30.64
60918;BME280;46792;38.854;-9.384;2023-04-05T01:42:01;99326.38;;;16.30;31.29
60918;BME280;46792;38.854;-9.384;2023-04-05T01:44:02;99333.25;;;16.27;30.38
60918;BME280;46792;38.854;-9.384;2023-04-05T01:46:21;99326.09;;;16.32;30.25
60918;BME280;46792;38.854;-9.384;2023-04-05T01:48:40;99325.72;;;16.47;29.25
60918;BME280;46792;38.854;-9.384;2023-04-05T01:50:59;99323.28;;;16.46;29.10
60918;BME280;46792;38.854;-9.384;2023-04-05T01:55:37;99302.28;;;16.60;28.52
60918;BME280;46792;38.854;-9.384;2023-04-05T01:57:38;99313.47;;;16.58;28.39
60918;BME280;46792;38.854;-9.384;2023-04-05T01:59:57;99307.22;;;16.58;28.67
60918;BME280;46792;38.854;-9.384;2023-04-05T02:01:57;99319.41;;;16.61;28.62
60918;BME280;46792;38.854;-9.384;2023-04-05T02:03:58;99320.53;;;16.60;28.96
60918;BME280;46792;38.854;-9.384;2023-04-05T02:05:59;99316.63;;;16.52;29.26
60918;BME280;46792;38.854;-9.384;2023-04-05T02:08:00;99318.84;;;16.50;29.26
60918;BME280;46792;38.854;-9.384;2023-04-05T02:10:01;99322.50;;;16.45;29.60
60918;BME280;46792;38.854;-9.384;2023-04-05T02:12:20;99316.06;;;16.41;28.94
60918;BME280;46792;38.854;-9.384;2023-04-05T02:14:23;99320.22;;;16.38;29.72
60918;BME280;46792;38.854;-9.384;2023-04-05T02:16:24;99319.22;;;16.34;29.76
60918;BME280;46792;38.854;-9.384;2023-04-05T02:18:45;99322.53;;;16.31;29.90
60918;BME280;46792;38.854;-9.384;2023-04-05T02:21:08;99315.63;;;16.25;30.33
60918;BME280;46792;38.854;-9.384;2023-04-05T02:23:10;99322.00;;;16.20;30.26
60918;BME280;46792;38.854;-9.384;2023-04-05T02:25:11;99314.44;;;16.17;30.63
60918;BME280;46792;38.854;-9.384;2023-04-05T02:27:12;99325.81;;;16.19;30.20
60918;BME280;46792;38.854;-9.384;2023-04-05T02:29:13;99324.00;;;16.15;30.01
60918;BME280;46792;38.854;-9.384;2023-04-05T02:31:13;99325.13;;;16.14;29.48
60918;BME280;46792;38.854;-9.384;2023-04-05T02:33:15;99315.03;;;16.14;29.56
60918;BME280;46792;38.854;-9.384;2023-04-05T02:35:35;99321.69;;;16.22;29.37
60918;BME280;46792;38.854;-9.384;2023-04-05T02:37:35;99312.06;;;16.24;29.16
60918;BME280;46792;38.854;-9.384;2023-04-05T02:39:36;99313.31;;;16.18;29.30
60918;BME280;46792;38.854;-9.384;2023-04-05T02:41:36;99312.00;;;16.16;29.79
60918;BME280;46792;38.854;-9.384;2023-04-05T02:43:55;99302.84;;;16.11;29.67
60918;BME280;46792;38.854;-9.384;2023-04-05T02:46:15;99303.16;;;16.10;29.79
60918;BME280;46792;38.854;-9.384;2023-04-05T02:48:16;99302.13;;;16.06;29.64
60918;BME280;46792;38.854;-9.384;2023-04-05T02:50:17;99307.09;;;16.04;29.77
60918;BME280;46792;38.854;-9.384;2023-04-05T02:52:20;99307.09;;;16.04;29.96
60918;BME280;46792;38.854;-9.384;2023-04-05T02:54:22;99311.72;;;16.03;29.77
60918;BME280;46792;38.854;-9.384;2023-04-05T02:56:31;99310.44;;;16.01;29.73
60918;BME280;46792;38.854;-9.384;2023-04-05T02:58:33;99311.41;;;16.05;29.13
60918;BME280;46792;38.854;-9.384;2023-04-05T03:00:35;99310.13;;;16.02;29.00
60918;BME280;46792;38.854;-9.384;2023-04-05T03:02:37;99314.28;;;16.00;29.34
60918;BME280;46792;38.854;-9.384;2023-04-05T03:04:39;99309.31;;;16.02;29.71
60918;BME280;46792;38.854;-9.384;2023-04-05T03:06:40;99312.56;;;15.90;29.36
60918;BME280;46792;38.854;-9.384;2023-04-05T03:09:02;99311.97;;;15.93;29.34
60918;BME280;46792;38.854;-9.384;2023-04-05T03:11:04;99318.38;;;15.97;29.10
60918;BME280;46792;38.854;-9.384;2023-04-05T03:13:06;99315.66;;;15.97;28.91
60918;BME280;46792;38.854;-9.384;2023-04-05T03:15:07;99310.72;;;15.99;28.21
60918;BME280;46792;38.854;-9.384;2023-04-05T03:19:50;99311.28;;;15.87;29.44
60918;BME280;46792;38.854;-9.384;2023-04-05T03:21:58;99307.13;;;15.90;28.99
60918;BME280;46792;38.854;-9.384;2023-04-05T03:24:06;99308.31;;;15.84;29.10
60918;BME280;46792;38.854;-9.384;2023-04-05T03:26:12;99309.13;;;15.84;29.26
60918;BME280;46792;38.854;-9.384;2023-04-05T03:28:17;99306.69;;;15.82;28.44
60918;BME280;46792;38.854;-9.384;2023-04-05T03:30:36;99303.91;;;15.88;28.79
60918;BME280;46792;38.854;-9.384;2023-04-05T03:32:48;99302.06;;;15.83;28.97
60918;BME280;46792;38.854;-9.384;2023-04-05T03:35:21;99302.69;;;15.80;28.87
60918;BME280;46792;38.854;-9.384;2023-04-05T03:37:22;99304.38;;;15.76;28.83
60918;BME280;46792;38.854;-9.384;2023-04-05T03:39:32;99295.25;;;15.72;28.98
60918;BME280;46792;38.854;-9.384;2023-04-05T03:41:51;99294.09;;;15.73;29.35
60918;BME280;46792;38.854;-9.384;2023-04-05T03:44:10;99289.81;;;15.72;28.70
60918;BME280;46792;38.854;-9.384;2023-04-05T03:46:11;99280.22;;;15.74;28.59
60918;BME280;46792;38.854;-9.384;2023-04-05T03:48:12;99282.31;;;15.77;28.25
60918;BME280;46792;38.854;-9.384;2023-04-05T03:50:12;99286.34;;;15.80;28.31
60918;BME280;46792;38.854;-9.384;2023-04-05T03:52:32;99281.22;;;15.78;28.86
60918;BME280;46792;38.854;-9.384;2023-04-05T03:54:51;99288.56;;;15.78;29.07
60918;BME280;46792;38.854;-9.384;2023-04-05T03:56:55;99287.44;;;15.79;28.78
60918;BME280;46792;38.854;-9.384;2023-04-05T03:58:56;99290.00;;;15.75;28.93
60918;BME280;46792;38.854;-9.384;2023-04-05T04:01:01;99290.59;;;15.72;29.09
60918;BME280;46792;38.854;-9.384;2023-04-05T04:03:01;99288.78;;;15.68;29.52
60918;BME280;46792;38.854;-9.384;2023-04-05T04:05:03;99296.75;;;15.64;29.66
60918;BME280;46792;38.854;-9.384;2023-04-05T04:07:24;99287.69;;;15.55;29.71
60918;BME280;46792;38.854;-9.384;2023-04-05T04:09:26;99292.09;;;15.50;29.96
60918;BME280;46792;38.854;-9.384;2023-04-05T04:11:30;99294.94;;;15.45;29.95
60918;BME280;46792;38.854;-9.384;2023-04-05T04:13:31;99287.19;;;15.39;30.30
60918;BME280;46792;38.854;-9.384;2023-04-05T04:15:50;99290.19;;;15.37;30.09
60918;BME280;46792;38.854;-9.384;2023-04-05T04:18:30;99287.09;;;15.30;30.46
60918;BME280;46792;38.854;-9.384;2023-04-05T04:20:49;99282.75;;;15.29;30.66
60918;BME280;46792;38.854;-9.384;2023-04-05T04:23:23;99289.59;;;15.26;30.33
60918;BME280;46792;38.854;-9.384;2023-04-05T04:25:36;99287.00;;;15.21;30.70
60918;BME280;46792;38.854;-9.384;2023-04-05T04:27:55;99294.44;;;15.15;31.14
60918;BME280;46792;38.854;-9.384;2023-04-05T04:30:15;99282.53;;;15.11;30.59
60918;BME280;46792;38.854;-9.384;2023-04-05T04:32:33;99287.47;;;15.09;31.03
60918;BME280;46792;38.854;-9.384;2023-04-05T04:35:02;99282.34;;;15.08;30.86
60918;BME280;46792;38.854;-9.384;2023-04-05T04:37:26;99287.16;;;15.11;30.69
60918;BME280;46792;38.854;-9.384;2023-04-05T04:39:48;99277.69;;;15.08;30.96
60918;BME280;46792;38.854;-9.384;2023-04-05T04:42:07;99291.09;;;15.04;31.00
60918;BME280;46792;38.854;-9.384;2023-04-05T04:44:46;99288.16;;;15.01;31.54
60918;BME280;46792;38.854;-9.384;2023-04-05T04:46:58;99281.72;;;14.97;31.52
60918;BME280;46792;38.854;-9.384;2023-04-05T04:49:20;99286.13;;;14.93;31.71
60918;BME280;46792;38.854;-9.384;2023-04-05T04:51:39;99285.13;;;14.88;31.59
60918;BME280;46792;38.854;-9.384;2023-04-05T04:53:40;99290.03;;;14.86;31.78
60918;BME280;46792;38.854;-9.384;2023-04-05T04:55:40;99288.44;;;14.85;31.37
60918;BME280;46792;38.854;-9.384;2023-04-05T04:57:44;99286.34;;;14.82;31.80
60918;BME280;46792;38.854;-9.384;2023-04-05T04:59:45;99291.75;;;14.82;31.71
60918;BME280;46792;38.854;-9.384;2023-04-05T05:02:04;99296.88;;;14.84;31.66
60918;BME280;46792;38.854;-9.384;2023-04-05T05:04:04;99295.06;;;14.79;31.98
60918;BME280;46792;38.854;-9.384;2023-04-05T05:06:09;99308.28;;;14.86;31.85
60918;BME280;46792;38.854;-9.384;2023-04-05T05:08:10;99308.75;;;14.74;31.79
60918;BME280;46792;38.854;-9.384;2023-04-05T05:10:13;99311.47;;;14.74;31.79
60918;BME280;46792;38.854;-9.384;2023-04-05T05:12:20;99305.81;;;14.70;31.89
60918;BME280;46792;38.854;-9.384;2023-04-05T05:14:20;99303.63;;;14.72;31.96
60918;BME280;46792;38.854;-9.384;2023-04-05T05:16:21;99303.16;;;14.65;32.14
60918;BME280;46792;38.854;-9.384;2023-04-05T05:18:22;99304.56;;;14.63;32.01
60918;BME280;46792;38.854;-9.384;2023-04-05T05:20:24;99307.84;;;14.59;32.16
60918;BME280;46792;38.854;-9.384;2023-04-05T05:22:27;99319.03;;;14.58;32.34
60918;BME280;46792;38.854;-9.384;2023-04-05T05:24:28;99312.78;;;14.57;32.22
60918;BME280;46792;38.854;-9.384;2023-04-05T05:26:28;99311.97;;;14.57;32.00
60918;BME280;46792;38.854;-9.384;2023-04-05T05:28:29;99311.75;;;14.53;32.04
60918;BME280;46792;38.854;-9.384;2023-04-05T05:30:30;99318.28;;;14.52;32.07
60918;BME280;46792;38.854;-9.384;2023-04-05T05:32:31;99315.09;;;14.50;31.94
60918;BME280;46792;38.854;-9.384;2023-04-05T05:34:48;99308.09;;;14.44;31.77
60918;BME280;46792;38.854;-9.384;2023-04-05T05:36:49;99324.31;;;14.49;31.63
60918;BME280;46792;38.854;-9.384;2023-04-05T05:38:51;99321.31;;;14.51;31.90
60918;BME280;46792;38.854;-9.384;2023-04-05T05:40:56;99322.72;;;14.48;31.32
60918;BME280;46792;38.854;-9.384;2023-04-05T05:42:57;99317.94;;;14.59;31.41
60918;BME280;46792;38.854;-9.384;2023-04-05T05:45:16;99317.78;;;14.50;31.72
60918;BME280;46792;38.854;-9.384;2023-04-05T05:47:54;99328.56;;;14.55;31.41
60918;BME280;46792;38.854;-9.384;2023-04-05T05:49:55;99323.50;;;14.49;30.88
60918;BME280;46792;38.854;-9.384;2023-04-05T05:51:56;99323.44;;;14.54;31.29
60918;BME280;46792;38.854;-9.384;2023-04-05T05:53:56;99307.06;;;14.40;31.05
60918;BME280;46792;38.854;-9.384;2023-04-05T05:56:15;99327.84;;;14.50;31.22
60918;BME280;46792;38.854;-9.384;2023-04-05T05:58:16;99324.84;;;14.51;30.97
60918;BME280;46792;38.854;-9.384;2023-04-05T06:00:17;99329.28;;;14.61;30.89
60918;BME280;46792;38.854;-9.384;2023-04-05T06:02:19;99332.31;;;14.59;31.17
60918;BME280;46792;38.854;-9.384;2023-04-05T06:04:19;99332.69;;;14.53;31.17
60918;BME280;46792;38.854;-9.384;2023-04-05T06:06:39;99329.06;;;14.57;30.79
60918;BME280;46792;38.854;-9.384;2023-04-05T06:08:42;99342.13;;;14.55;30.73
60918;BME280;46792;38.854;-9.384;2023-04-05T06:10:42;99335.19;;;14.49;30.89
60918;BME280;46792;38.854;-9.384;2023-04-05T06:12:43;99344.34;;;14.53;31.21
60918;BME280;46792;38.854;-9.384;2023-04-05T06:14:44;99340.91;;;14.48;31.45
60918;BME280;46792;38.854;-9.384;2023-04-05T06:16:44;99336.28;;;14.48;31.16
60918;BME280;46792;38.854;-9.384;2023-04-05T06:18:45;99340.00;;;14.52;31.36
60918;BME280;46792;38.854;-9.384;2023-04-05T06:20:46;99342.81;;;14.47;31.21
60918;BME280;46792;38.854;-9.384;2023-04-05T06:22:47;99344.81;;;14.41;30.89
60918;BME280;46792;38.854;-9.384;2023-04-05T06:24:47;99349.63;;;14.44;31.17
60918;BME280;46792;38.854;-9.384;2023-04-05T06:26:49;99347.53;;;14.41;31.22
60918;BME280;46792;38.854;-9.384;2023-04-05T06:28:50;99344.28;;;14.39;31.67
60918;BME280;46792;38.854;-9.384;2023-04-05T06:30:51;99349.72;;;14.39;31.57
60918;BME280;46792;38.854;-9.384;2023-04-05T06:32:51;99351.03;;;14.42;31.26
60918;BME280;46792;38.854;-9.384;2023-04-05T06:35:12;99348.19;;;14.33;31.38
60918;BME280;46792;38.854;-9.384;2023-04-05T06:37:13;99355.28;;;14.29;31.16
60918;BME280;46792;38.854;-9.384;2023-04-05T06:39:13;99355.28;;;14.29;31.63
60918;BME280;46792;38.854;-9.384;2023-04-05T06:41:14;99359.41;;;14.26;31.55
60918;BME280;46792;38.854;-9.384;2023-04-05T06:43:14;99358.81;;;14.29;31.47
60918;BME280;46792;38.854;-9.384;2023-04-05T06:45:21;99360.50;;;14.25;32.16
60918;BME280;46792;38.854;-9.384;2023-04-05T06:47:21;99363.22;;;14.25;31.49
60918;BME280;46792;38.854;-9.384;2023-04-05T06:49:22;99364.84;;;14.26;31.56
60918;BME280;46792;38.854;-9.384;2023-04-05T06:51:22;99377.31;;;14.27;31.62
60918;BME280;46792;38.854;-9.384;2023-04-05T06:53:43;99371.88;;;14.27;31.84
60918;BME280;46792;38.854;-9.384;2023-04-05T06:55:48;99369.75;;;14.24;31.88
60918;BME280;46792;38.854;-9.384;2023-04-05T06:57:50;99365.13;;;14.25;31.95
60918;BME280;46792;38.854;-9.384;2023-04-05T06:59:51;99373.81;;;14.27;31.93
60918;BME280;46792;38.854;-9.384;2023-04-05T07:01:52;99377.09;;;14.24;32.35
60918;BME280;46792;38.854;-9.384;2023-04-05T07:03:52;99377.16;;;14.19;32.21
60918;BME280;46792;38.854;-9.384;2023-04-05T07:05:54;99373.88;;;14.22;32.39
60918;BME280;46792;38.854;-9.384;2023-04-05T07:07:56;99379.28;;;14.22;32.57
60918;BME280;46792;38.854;-9.384;2023-04-05T07:10:18;99377.91;;;14.24;32.49
60918;BME280;46792;38.854;-9.384;2023-04-05T07:12:18;99371.38;;;14.25;32.58
60918;BME280;46792;38.854;-9.384;2023-04-05T07:14:19;99375.91;;;14.30;32.70
60918;BME280;46792;38.854;-9.384;2023-04-05T07:16:20;99373.13;;;14.35;32.09
60918;BME280;46792;38.854;-9.384;2023-04-05T07:18:22;99375.53;;;14.37;32.37
60918;BME280;46792;38.854;-9.384;2023-04-05T07:20:41;99376.88;;;14.39;32.45
60918;BME280;46792;38.854;-9.384;2023-04-05T07:23:01;99380.34;;;14.45;32.41
60918;BME280;46792;38.854;-9.384;2023-04-05T07:25:01;99379.75;;;14.48;32.67
60918;BME280;46792;38.854;-9.384;2023-04-05T07:27:21;99389.00;;;14.47;32.68
60918;BME280;46792;38.854;-9.384;2023-04-05T07:29:21;99385.38;;;14.52;32.67
60918;BME280;46792;38.854;-9.384;2023-04-05T07:31:40;99383.19;;;14.54;32.48
60918;BME280;46792;38.854;-9.384;2023-04-05T07:33:41;99388.56;;;14.59;32.70
60918;BME280;46792;38.854;-9.384;2023-04-05T07:35:41;99392.78;;;14.65;32.58
60918;BME280;46792;38.854;-9.384;2023-04-05T07:37:42;99397.63;;;14.73;32.58
60918;BME280;46792;38.854;-9.384;2023-04-05T07:39:42;99401.06;;;14.79;32.47
60918;BME280;46792;38.854;-9.384;2023-04-05T07:41:43;99391.41;;;14.87;31.88
60918;BME280;46792;38.854;-9.384;2023-04-05T07:43:44;99393.44;;;14.95;31.83
60918;BME280;46792;38.854;-9.384;2023-04-05T07:45:44;99392.78;;;15.03;31.66
60918;BME280;46792;38.854;-9.384;2023-04-05T07:47:45;99392.41;;;15.10;31.53
60918;BME280;46792;38.854;-9.384;2023-04-05T07:49:46;99397.13;;;15.18;31.52
60918;BME280;46792;38.854;-9.384;2023-04-05T07:51:46;99394.53;;;15.27;31.50
60918;BME280;46792;38.854;-9.384;2023-04-05T07:53:47;99394.66;;;15.36;30.87
60918;BME280;46792;38.854;-9.384;2023-04-05T07:55:48;99400.03;;;15.41;30.53
60918;BME280;46792;38.854;-9.384;2023-04-05T07:57:49;99397.41;;;15.50;30.47
60918;BME280;46792;38.854;-9.384;2023-04-05T07:59:50;99403.47;;;15.61;30.50
60918;BME280;46792;38.854;-9.384;2023-04-05T08:01:51;99396.03;;;15.66;30.39
60918;BME280;46792;38.854;-9.384;2023-04-05T08:03:53;99404.88;;;15.72;29.96
60918;BME280;46792;38.854;-9.384;2023-04-05T08:05:57;99403.56;;;15.84;29.99
60918;BME280;46792;38.854;-9.384;2023-04-05T08:07:57;99389.81;;;15.94;30.29
60918;BME280;46792;38.854;-9.384;2023-04-05T08:09:58;99403.50;;;16.03;30.08
60918;BME280;46792;38.854;-9.384;2023-04-05T08:11:59;99403.09;;;16.09;28.51
60918;BME280;46792;38.854;-9.384;2023-04-05T08:14:23;99402.88;;;16.20;28.96
60918;BME280;46792;38.854;-9.384;2023-04-05T08:16:24;99405.69;;;16.29;29.36
60918;BME280;46792;38.854;-9.384;2023-04-05T08:18:27;99394.88;;;16.37;29.49
60918;BME280;46792;38.854;-9.384;2023-04-05T08:20:28;99398.03;;;16.53;29.31
60918;BME280;46792;38.854;-9.384;2023-04-05T08:22:29;99406.63;;;16.61;28.45
60918;BME280;46792;38.854;-9.384;2023-04-05T08:24:29;99409.75;;;16.68;28.42
60918;BME280;46792;38.854;-9.384;2023-04-05T08:26:30;99418.84;;;16.86;28.85
60918;BME280;46792;38.854;-9.384;2023-04-05T08:28:31;99413.75;;;16.93;28.73
60918;BME280;46792;38.854;-9.384;2023-04-05T08:30:34;99408.53;;;16.97;28.57
60918;BME280;46792;38.854;-9.384;2023-04-05T08:32:35;99418.41;;;17.07;28.03
60918;BME280;46792;38.854;-9.384;2023-04-05T08:34:36;99418.25;;;17.12;28.42
60918;BME280;46792;38.854;-9.384;2023-04-05T08:36:37;99413.16;;;17.19;28.50
60918;BME280;46792;38.854;-9.384;2023-04-05T08:38:37;99423.53;;;17.31;28.40
60918;BME280;46792;38.854;-9.384;2023-04-05T08:40:44;99416.50;;;17.39;27.54
60918;BME280;46792;38.854;-9.384;2023-04-05T08:43:02;99414.13;;;17.46;27.99
60918;BME280;46792;38.854;-9.384;2023-04-05T08:45:08;99419.53;;;17.69;28.66
60918;BME280;46792;38.854;-9.384;2023-04-05T08:47:09;99425.94;;;17.73;28.43
60918;BME280;46792;38.854;-9.384;2023-04-05T08:49:14;99425.53;;;17.79;27.51
60918;BME280;46792;38.854;-9.384;2023-04-05T08:51:22;99418.03;;;17.94;27.36
60918;BME280;46792;38.854;-9.384;2023-04-05T08:55:17;99427.09;;;18.12;27.52
60918;BME280;46792;38.854;-9.384;2023-04-05T08:57:38;99429.06;;;18.38;27.15
60918;BME280;46792;38.854;-9.384;2023-04-05T08:59:42;99431.66;;;18.52;26.81
60918;BME280;46792;38.854;-9.384;2023-04-05T09:01:44;99430.06;;;18.51;26.76
60918;BME280;46792;38.854;-9.384;2023-04-05T09:03:50;99431.53;;;18.57;26.33
60918;BME280;46792;38.854;-9.384;2023-04-05T09:05:52;99436.66;;;18.67;27.04
60918;BME280;46792;38.854;-9.384;2023-04-05T09:07:56;99433.94;;;18.85;26.00
60918;BME280;46792;38.854;-9.384;2023-04-05T09:10:18;99434.72;;;18.85;25.90
60918;BME280;46792;38.854;-9.384;2023-04-05T09:12:20;99444.88;;;18.94;25.95
60918;BME280;46792;38.854;-9.384;2023-04-05T09:14:23;99447.97;;;19.01;25.37
60918;BME280;46792;38.854;-9.384;2023-04-05T09:16:25;99442.94;;;19.21;25.47
60918;BME280;46792;38.854;-9.384;2023-04-05T09:18:26;99445.16;;;19.27;25.84
60918;BME280;46792;38.854;-9.384;2023-04-05T09:20:27;99450.81;;;19.31;25.60
60918;BME280;46792;38.854;-9.384;2023-04-05T09:22:27;99455.44;;;19.48;25.48
60918;BME280;46792;38.854;-9.384;2023-04-05T09:24:42;99448.50;;;19.51;23.82
60918;BME280;46792;38.854;-9.384;2023-04-05T09:26:43;99451.38;;;19.63;23.85
60918;BME280;46792;38.854;-9.384;2023-04-05T09:28:44;99456.34;;;19.70;24.09
60918;BME280;46792;38.854;-9.384;2023-04-05T09:30:45;99460.00;;;19.83;23.70
60918;BME280;46792;38.854;-9.384;2023-04-05T09:32:46;99464.53;;;19.87;22.77
60918;BME280;46792;38.854;-9.384;2023-04-05T09:34:47;99469.03;;;19.92;22.36
60918;BME280;46792;38.854;-9.384;2023-04-05T09:36:57;99466.47;;;19.87;22.36
60918;BME280;46792;38.854;-9.384;2023-04-05T09:39:08;99465.13;;;20.02;22.71
60918;BME280;46792;38.854;-9.384;2023-04-05T09:41:09;99470.25;;;20.03;23.38
60918;BME280;46792;38.854;-9.384;2023-04-05T09:43:12;99459.00;;;20.05;23.63
60918;BME280;46792;38.854;-9.384;2023-04-05T09:45:13;99460.88;;;20.13;22.47
60918;BME280;46792;38.854;-9.384;2023-04-05T09:47:32;99464.34;;;20.23;22.51
60918;BME280;46792;38.854;-9.384;2023-04-05T09:49:37;99471.88;;;20.34;22.68
60918;BME280;46792;38.854;-9.384;2023-04-05T09:51:37;99463.94;;;20.42;22.16
60918;BME280;46792;38.854;-9.384;2023-04-05T09:54:04;99465.88;;;20.62;22.64
60918;BME280;46792;38.854;-9.384;2023-04-05T09:56:09;99464.16;;;20.58;22.09
60918;BME280;46792;38.854;-9.384;2023-04-05T09:58:20;99459.59;;;20.62;21.63
60918;BME280;46792;38.854;-9.384;2023-04-05T10:00:21;99471.16;;;20.76;21.94
60918;BME280;46792;38.854;-9.384;2023-04-05T10:02:23;99474.00;;;20.80;21.06
60918;BME280;46792;38.854;-9.384;2023-04-05T10:04:24;99464.81;;;20.85;21.32
60918;BME280;46792;38.854;-9.384;2023-04-05T10:06:37;99464.84;;;20.97;21.76
60918;BME280;46792;38.854;-9.384;2023-04-05T10:08:38;99472.78;;;21.11;21.15
60918;BME280;46792;38.854;-9.384;2023-04-05T10:10:45;99468.44;;;21.31;22.35
60918;BME280;46792;38.854;-9.384;2023-04-05T10:13:05;99476.22;;;21.41;21.43
60918;BME280;46792;38.854;-9.384;2023-04-05T10:15:06;99470.28;;;21.52;21.84
60918;BME280;46792;38.854;-9.384;2023-04-05T10:17:23;99478.72;;;21.68;21.60
60918;BME280;46792;38.854;-9.384;2023-04-05T10:19:56;99473.72;;;21.82;21.37
60918;BME280;46792;38.854;-9.384;2023-04-05T10:22:03;99473.50;;;22.00;20.83
60918;BME280;46792;38.854;-9.384;2023-04-05T10:24:22;99478.22;;;22.12;20.57
60918;BME280;46792;38.854;-9.384;2023-04-05T10:27:04;99473.28;;;22.17;21.02
60918;BME280;46792;38.854;-9.384;2023-04-05T10:29:23;99475.56;;;22.28;20.75
60918;BME280;46792;38.854;-9.384;2023-04-05T10:31:29;99477.13;;;22.41;21.27
60918;BME280;46792;38.854;-9.384;2023-04-05T10:33:44;99463.41;;;22.54;21.47
60918;BME280;46792;38.854;-9.384;2023-04-05T10:40:31;99470.19;;;22.97;20.88
60918;BME280;46792;38.854;-9.384;2023-04-05T10:42:40;99469.25;;;22.93;20.11
60918;BME280;46792;38.854;-9.384;2023-04-05T10:45:07;99469.03;;;22.98;19.75
60918;BME280;46792;38.854;-9.384;2023-04-05T10:47:13;99467.22;;;23.18;19.92
60918;BME280;46792;38.854;-9.384;2023-04-05T10:49:21;99465.50;;;23.26;20.00
60918;BME280;46792;38.854;-9.384;2023-04-05T10:51:28;99473.06;;;23.29;19.78
60918;BME280;46792;38.854;-9.384;2023-04-05T10:53:30;99466.94;;;23.36;19.19
60918;BME280;46792;38.854;-9.384;2023-04-05T10:55:33;99473.84;;;23.30;19.01
60918;BME280;46792;38.854;-9.384;2023-04-05T10:57:40;99470.22;;;23.42;19.00
60918;BME280;46792;38.854;-9.384;2023-04-05T10:59:43;99475.38;;;23.43;19.31
60918;BME280;46792;38.854;-9.384;2023-04-05T11:01:45;99477.97;;;23.52;18.46
60918;BME280;46792;38.854;-9.384;2023-04-05T11:03:46;99472.13;;;23.69;18.74
60918;BME280;46792;38.854;-9.384;2023-04-05T11:05:50;99466.81;;;23.77;18.68
60918;BME280;46792;38.854;-9.384;2023-04-05T11:07:51;99464.59;;;23.82;19.09
60918;BME280;46792;38.854;-9.384;2023-04-05T11:10:01;99475.38;;;24.04;18.69
60918;BME280;46792;38.854;-9.384;2023-04-05T11:12:02;99466.13;;;24.12;18.42
60918;BME280;46792;38.854;-9.384;2023-04-05T11:14:25;99472.50;;;24.16;17.19
60918;BME280;46792;38.854;-9.384;2023-04-05T11:16:38;99466.91;;;24.12;17.40
60918;BME280;46792;38.854;-9.384;2023-04-05T11:18:46;99463.38;;;24.12;17.98
60918;BME280;46792;38.854;-9.384;2023-04-05T11:21:05;99465.75;;;24.29;18.85
60918;BME280;46792;38.854;-9.384;2023-04-05T11:23:06;99467.22;;;24.43;18.91
60918;BME280;46792;38.854;-9.384;2023-04-05T11:25:21;99469.28;;;24.66;18.71